sensor_id;sensor_type;location;lat;lon;timestamp;temperature;humidity
2869;DHT22;1442;47.448;8.582;2023-12-20T00:02:14;5.00;99.90
2869;DHT22;1442;47.448;8.582;2023-12-20T00:04:42;5.00;99.90
2869;DHT22;1442;47.448;8.582;2023-12-20T00:07:09;5.00;99.90
2869;DHT22;1442;47.448;8.582;2023-12-20T00:09:36;5.00;99.90
2869;DHT22;1442;47.448;8.582;2023-12-20T00:12:03;5.00;99.90
2869;DHT22;1442;47.448;8.582;2023-12-20T00:14:30;5.10;99.90
2869;DHT22;1442;47.448;8.582;2023-12-20T00:16:56;5.00;99.90
2869;DHT22;1442;47.448;8.582;2023-12-20T00:19:23;4.90;99.90
2869;DHT22;1442;47.448;8.582;2023-12-20T00:21:51;4.80;99.90
2869;DHT22;1442;47.448;8.582;2023-12-20T00:24:18;4.80;99.90
2869;DHT22;1442;47.448;8.582;2023-12-20T00:26:46;4.70;99.90
2869;DHT22;1442;47.448;8.582;2023-12-20T00:29:12;4.80;99.90
2869;DHT22;1442;47.448;8.582;2023-12-20T00:31:39;4.80;99.90
2869;DHT22;1442;47.448;8.582;2023-12-20T00:34:06;4.90;99.90
2869;DHT22;1442;47.448;8.582;2023-12-20T00:36:33;4.80;99.90
2869;DHT22;1442;47.448;8.582;2023-12-20T00:39:01;4.80;99.90
2869;DHT22;1442;47.448;8.582;2023-12-20T00:41:28;4.80;99.90
2869;DHT22;1442;47.448;8.582;2023-12-20T00:43:55;4.80;99.90
2869;DHT22;1442;47.448;8.582;2023-12-20T00:46:22;4.80;99.90
2869;DHT22;1442;47.448;8.582;2023-12-20T00:48:48;4.90;99.90
2869;DHT22;1442;47.448;8.582;2023-12-20T00:51:15;5.00;99.90
2869;DHT22;1442;47.448;8.582;2023-12-20T00:53:42;5.00;99.90
2869;DHT22;1442;47.448;8.582;2023-12-20T00:56:10;5.10;99.90
2869;DHT22;1442;47.448;8.582;2023-12-20T00:58:37;5.00;99.90
2869;DHT22;1442;47.448;8.582;2023-12-20T01:01:04;5.00;99.90
2869;DHT22;1442;47.448;8.582;2023-12-20T01:03:30;5.00;99.90
2869;DHT22;1442;47.448;8.582;2023-12-20T01:05:57;5.00;99.90
2869;DHT22;1442;47.448;8.582;2023-12-20T01:08:24;5.00;99.90
2869;DHT22;1442;47.448;8.582;2023-12-20T01:10:51;5.10;99.90
2869;DHT22;1442;47.448;8.582;2023-12-20T01:13:19;5.10;99.90
2869;DHT22;1442;47.448;8.582;2023-12-20T01:15:46;5.00;99.90
2869;DHT22;1442;47.448;8.582;2023-12-20T01:18:13;5.00;99.90
2869;DHT22;1442;47.448;8.582;2023-12-20T01:20:40;5.00;99.90
2869;DHT22;1442;47.448;8.582;2023-12-20T01:23:08;5.00;99.90
2869;DHT22;1442;47.448;8.582;2023-12-20T01:25:34;5.20;99.90
2869;DHT22;1442;47.448;8.582;2023-12-20T01:28:01;5.20;99.90
2869;DHT22;1442;47.448;8.582;2023-12-20T01:30:30;5.30;99.90
2869;DHT22;1442;47.448;8.582;2023-12-20T01:32:56;5.30;99.90
2869;DHT22;1442;47.448;8.582;2023-12-20T01:35:23;5.40;99.90
2869;DHT22;1442;47.448;8.582;2023-12-20T01:37:50;5.40;99.90
2869;DHT22;1442;47.448;8.582;2023-12-20T01:40:16;5.50;99.90
2869;DHT22;1442;47.448;8.582;2023-12-20T01:42:43;5.50;99.90
2869;DHT22;1442;47.448;8.582;2023-12-20T01:45:10;5.50;99.90
2869;DHT22;1442;47.448;8.582;2023-12-20T01:47:38;5.50;99.90
2869;DHT22;1442;47.448;8.582;2023-12-20T01:50:06;5.50;99.90
2869;DHT22;1442;47.448;8.582;2023-12-20T01:52:34;5.50;99.90
2869;DHT22;1442;47.448;8.582;2023-12-20T01:55:01;5.50;99.90
2869;DHT22;1442;47.448;8.582;2023-12-20T01:57:30;5.50;99.90
2869;DHT22;1442;47.448;8.582;2023-12-20T01:59:57;5.50;99.90
2869;DHT22;1442;47.448;8.582;2023-12-20T02:02:26;5.50;99.90
2869;DHT22;1442;47.448;8.582;2023-12-20T02:04:55;5.40;99.90
2869;DHT22;1442;47.448;8.582;2023-12-20T02:07:22;5.40;99.90
2869;DHT22;1442;47.448;8.582;2023-12-20T02:09:49;5.40;99.90
2869;DHT22;1442;47.448;8.582;2023-12-20T02:12:16;5.50;99.90
2869;DHT22;1442;47.448;8.582;2023-12-20T02:14:43;5.60;99.90
2869;DHT22;1442;47.448;8.582;2023-12-20T02:17:10;5.60;99.90
2869;DHT22;1442;47.448;8.582;2023-12-20T02:19:37;5.60;99.90
2869;DHT22;1442;47.448;8.582;2023-12-20T02:22:09;5.60;99.90
2869;DHT22;1442;47.448;8.582;2023-12-20T02:24:36;5.60;99.90
2869;DHT22;1442;47.448;8.582;2023-12-20T02:27:03;5.70;99.90
2869;DHT22;1442;47.448;8.582;2023-12-20T02:29:32;5.70;99.90
2869;DHT22;1442;47.448;8.582;2023-12-20T02:31:59;5.70;99.90
2869;DHT22;1442;47.448;8.582;2023-12-20T02:34:25;5.70;99.90
2869;DHT22;1442;47.448;8.582;2023-12-20T02:36:52;5.70;99.90
2869;DHT22;1442;47.448;8.582;2023-12-20T02:39:21;5.80;99.90
2869;DHT22;1442;47.448;8.582;2023-12-20T02:41:48;5.80;99.90
2869;DHT22;1442;47.448;8.582;2023-12-20T02:44:15;5.80;99.90
2869;DHT22;1442;47.448;8.582;2023-12-20T02:46:42;5.80;99.90
2869;DHT22;1442;47.448;8.582;2023-12-20T02:49:08;5.80;99.90
2869;DHT22;1442;47.448;8.582;2023-12-20T02:51:35;5.80;99.90
2869;DHT22;1442;47.448;8.582;2023-12-20T02:54:04;5.80;99.90
2869;DHT22;1442;47.448;8.582;2023-12-20T02:56:32;5.80;99.90
2869;DHT22;1442;47.448;8.582;2023-12-20T02:58:58;5.80;99.90
2869;DHT22;1442;47.448;8.582;2023-12-20T03:01:25;5.70;99.90
2869;DHT22;1442;47.448;8.582;2023-12-20T03:03:52;5.60;99.90
2869;DHT22;1442;47.448;8.582;2023-12-20T03:06:19;5.60;99.90
2869;DHT22;1442;47.448;8.582;2023-12-20T03:08:46;5.70;99.90
2869;DHT22;1442;47.448;8.582;2023-12-20T03:11:13;5.70;99.90
2869;DHT22;1442;47.448;8.582;2023-12-20T03:13:41;5.60;99.90
2869;DHT22;1442;47.448;8.582;2023-12-20T03:16:11;5.60;99.90
2869;DHT22;1442;47.448;8.582;2023-12-20T03:18:37;5.60;99.90
2869;DHT22;1442;47.448;8.582;2023-12-20T03:21:05;5.60;99.90
2869;DHT22;1442;47.448;8.582;2023-12-20T03:23:32;5.60;99.90
2869;DHT22;1442;47.448;8.582;2023-12-20T03:25:59;5.60;99.90
2869;DHT22;1442;47.448;8.582;2023-12-20T03:28:27;5.50;99.90
2869;DHT22;1442;47.448;8.582;2023-12-20T03:30:55;5.40;99.90
2869;DHT22;1442;47.448;8.582;2023-12-20T03:33:22;5.50;99.90
2869;DHT22;1442;47.448;8.582;2023-12-20T03:35:48;5.50;99.90
2869;DHT22;1442;47.448;8.582;2023-12-20T03:38:15;5.50;99.90
2869;DHT22;1442;47.448;8.582;2023-12-20T03:40:42;5.50;99.90
2869;DHT22;1442;47.448;8.582;2023-12-20T03:43:09;5.50;99.90
2869;DHT22;1442;47.448;8.582;2023-12-20T03:45:35;5.60;99.90
2869;DHT22;1442;47.448;8.582;2023-12-20T03:48:05;5.60;99.90
2869;DHT22;1442;47.448;8.582;2023-12-20T03:50:31;5.60;99.90
2869;DHT22;1442;47.448;8.582;2023-12-20T03:52:58;5.50;99.90
2869;DHT22;1442;47.448;8.582;2023-12-20T03:55:25;5.50;99.90
2869;DHT22;1442;47.448;8.582;2023-12-20T03:57:52;5.50;99.90
2869;DHT22;1442;47.448;8.582;2023-12-20T04:00:19;5.50;99.90
2869;DHT22;1442;47.448;8.582;2023-12-20T04:02:45;5.50;99.90
2869;DHT22;1442;47.448;8.582;2023-12-20T04:05:13;5.50;99.90
2869;DHT22;1442;47.448;8.582;2023-12-20T04:07:40;5.50;99.90
2869;DHT22;1442;47.448;8.582;2023-12-20T04:10:08;5.50;99.90
2869;DHT22;1442;47.448;8.582;2023-12-20T04:12:34;5.60;99.90
2869;DHT22;1442;47.448;8.582;2023-12-20T04:15:01;5.60;99.90
2869;DHT22;1442;47.448;8.582;2023-12-20T04:17:34;5.50;99.90
2869;DHT22;1442;47.448;8.582;2023-12-20T04:20:01;5.60;99.90
2869;DHT22;1442;47.448;8.582;2023-12-20T04:22:29;5.50;99.90
2869;DHT22;1442;47.448;8.582;2023-12-20T04:24:56;5.40;99.90
2869;DHT22;1442;47.448;8.582;2023-12-20T04:27:22;5.40;99.90
2869;DHT22;1442;47.448;8.582;2023-12-20T04:29:49;5.40;99.90
2869;DHT22;1442;47.448;8.582;2023-12-20T04:32:16;5.40;99.90
2869;DHT22;1442;47.448;8.582;2023-12-20T04:34:43;5.50;99.90
2869;DHT22;1442;47.448;8.582;2023-12-20T04:37:09;5.50;99.90
2869;DHT22;1442;47.448;8.582;2023-12-20T04:39:37;5.50;99.90
2869;DHT22;1442;47.448;8.582;2023-12-20T04:42:04;5.50;99.90
2869;DHT22;1442;47.448;8.582;2023-12-20T04:44:31;5.60;99.90
2869;DHT22;1442;47.448;8.582;2023-12-20T04:46:58;5.70;99.90
2869;DHT22;1442;47.448;8.582;2023-12-20T04:49:25;5.70;99.90
2869;DHT22;1442;47.448;8.582;2023-12-20T04:51:52;5.80;99.90
2869;DHT22;1442;47.448;8.582;2023-12-20T04:54:18;5.80;99.90
2869;DHT22;1442;47.448;8.582;2023-12-20T04:56:47;5.80;99.90
2869;DHT22;1442;47.448;8.582;2023-12-20T04:59:14;5.70;99.90
2869;DHT22;1442;47.448;8.582;2023-12-20T05:01:41;5.70;99.90
2869;DHT22;1442;47.448;8.582;2023-12-20T05:04:08;5.80;99.90
2869;DHT22;1442;47.448;8.582;2023-12-20T05:06:35;5.80;99.90
2869;DHT22;1442;47.448;8.582;2023-12-20T05:09:01;5.80;99.90
2869;DHT22;1442;47.448;8.582;2023-12-20T05:11:28;5.80;99.90
2869;DHT22;1442;47.448;8.582;2023-12-20T05:13:56;5.90;99.90
2869;DHT22;1442;47.448;8.582;2023-12-20T05:16:23;5.90;99.90
2869;DHT22;1442;47.448;8.582;2023-12-20T05:18:50;5.90;99.90
2869;DHT22;1442;47.448;8.582;2023-12-20T05:21:18;5.90;99.90
2869;DHT22;1442;47.448;8.582;2023-12-20T05:23:45;5.90;99.90
2869;DHT22;1442;47.448;8.582;2023-12-20T05:26:12;5.90;99.90
2869;DHT22;1442;47.448;8.582;2023-12-20T05:28:38;5.80;99.90
2869;DHT22;1442;47.448;8.582;2023-12-20T05:31:06;5.70;99.90
2869;DHT22;1442;47.448;8.582;2023-12-20T05:33:33;5.80;99.90
2869;DHT22;1442;47.448;8.582;2023-12-20T05:36:00;5.70;99.90
2869;DHT22;1442;47.448;8.582;2023-12-20T05:38:27;5.70;99.90
2869;DHT22;1442;47.448;8.582;2023-12-20T05:40:54;5.70;99.90
2869;DHT22;1442;47.448;8.582;2023-12-20T05:43:20;5.80;99.90
2869;DHT22;1442;47.448;8.582;2023-12-20T05:45:47;5.90;99.90
2869;DHT22;1442;47.448;8.582;2023-12-20T05:48:15;5.90;99.90
2869;DHT22;1442;47.448;8.582;2023-12-20T05:50:42;5.90;99.90
2869;DHT22;1442;47.448;8.582;2023-12-20T05:53:08;5.90;99.90
2869;DHT22;1442;47.448;8.582;2023-12-20T05:55:35;5.90;99.90
2869;DHT22;1442;47.448;8.582;2023-12-20T05:58:02;5.80;99.90
2869;DHT22;1442;47.448;8.582;2023-12-20T06:00:29;5.80;99.90
2869;DHT22;1442;47.448;8.582;2023-12-20T06:02:55;5.80;99.90
2869;DHT22;1442;47.448;8.582;2023-12-20T06:05:23;5.70;99.90
2869;DHT22;1442;47.448;8.582;2023-12-20T06:07:50;5.70;99.90
2869;DHT22;1442;47.448;8.582;2023-12-20T06:10:18;5.70;99.90
2869;DHT22;1442;47.448;8.582;2023-12-20T06:12:44;5.80;99.90
2869;DHT22;1442;47.448;8.582;2023-12-20T06:15:12;5.70;99.90
2869;DHT22;1442;47.448;8.582;2023-12-20T06:17:39;5.80;99.90
2869;DHT22;1442;47.448;8.582;2023-12-20T06:20:08;5.80;99.90
2869;DHT22;1442;47.448;8.582;2023-12-20T06:22:36;5.90;99.90
2869;DHT22;1442;47.448;8.582;2023-12-20T06:25:03;6.00;99.90
2869;DHT22;1442;47.448;8.582;2023-12-20T06:27:30;6.00;99.90
2869;DHT22;1442;47.448;8.582;2023-12-20T06:29:58;6.00;99.90
2869;DHT22;1442;47.448;8.582;2023-12-20T06:32:24;6.00;99.90
2869;DHT22;1442;47.448;8.582;2023-12-20T06:34:51;6.10;99.90
2869;DHT22;1442;47.448;8.582;2023-12-20T06:37:18;6.10;99.90
2869;DHT22;1442;47.448;8.582;2023-12-20T06:39:46;6.10;99.90
2869;DHT22;1442;47.448;8.582;2023-12-20T06:42:13;6.10;99.90
2869;DHT22;1442;47.448;8.582;2023-12-20T06:44:39;6.10;99.90
2869;DHT22;1442;47.448;8.582;2023-12-20T06:47:07;6.10;99.90
2869;DHT22;1442;47.448;8.582;2023-12-20T06:49:34;6.10;99.90
2869;DHT22;1442;47.448;8.582;2023-12-20T06:52:00;6.10;99.90
2869;DHT22;1442;47.448;8.582;2023-12-20T06:54:27;6.10;99.90
2869;DHT22;1442;47.448;8.582;2023-12-20T06:56:55;6.10;99.90
2869;DHT22;1442;47.448;8.582;2023-12-20T06:59:22;6.20;99.90
2869;DHT22;1442;47.448;8.582;2023-12-20T07:01:49;6.10;99.90
2869;DHT22;1442;47.448;8.582;2023-12-20T07:04:16;6.20;99.90
2869;DHT22;1442;47.448;8.582;2023-12-20T07:06:45;6.20;99.90
2869;DHT22;1442;47.448;8.582;2023-12-20T07:09:13;6.30;99.90
2869;DHT22;1442;47.448;8.582;2023-12-20T07:11:39;6.30;99.90
2869;DHT22;1442;47.448;8.582;2023-12-20T07:14:08;6.30;99.90
2869;DHT22;1442;47.448;8.582;2023-12-20T07:16:35;6.40;99.90
2869;DHT22;1442;47.448;8.582;2023-12-20T07:19:01;6.50;99.90
2869;DHT22;1442;47.448;8.582;2023-12-20T07:21:28;6.50;99.90
2869;DHT22;1442;47.448;8.582;2023-12-20T07:23:55;6.60;99.90
2869;DHT22;1442;47.448;8.582;2023-12-20T07:26:22;6.70;99.90
2869;DHT22;1442;47.448;8.582;2023-12-20T07:28:49;6.70;99.90
2869;DHT22;1442;47.448;8.582;2023-12-20T07:31:17;6.70;99.90
2869;DHT22;1442;47.448;8.582;2023-12-20T07:33:43;6.80;99.90
2869;DHT22;1442;47.448;8.582;2023-12-20T07:36:11;6.80;99.90
2869;DHT22;1442;47.448;8.582;2023-12-20T07:38:38;6.70;99.90
2869;DHT22;1442;47.448;8.582;2023-12-20T07:41:04;6.70;99.90
2869;DHT22;1442;47.448;8.582;2023-12-20T07:43:31;6.70;99.90
2869;DHT22;1442;47.448;8.582;2023-12-20T07:46:04;6.60;99.90
2869;DHT22;1442;47.448;8.582;2023-12-20T07:48:32;6.60;99.90
2869;DHT22;1442;47.448;8.582;2023-12-20T07:50:59;6.60;99.90
2869;DHT22;1442;47.448;8.582;2023-12-20T07:53:25;6.60;99.90
2869;DHT22;1442;47.448;8.582;2023-12-20T07:55:52;6.60;99.90
2869;DHT22;1442;47.448;8.582;2023-12-20T07:58:19;6.60;99.90
2869;DHT22;1442;47.448;8.582;2023-12-20T08:00:46;6.70;99.90
2869;DHT22;1442;47.448;8.582;2023-12-20T08:03:13;6.70;99.90
2869;DHT22;1442;47.448;8.582;2023-12-20T08:05:41;6.70;99.90
2869;DHT22;1442;47.448;8.582;2023-12-20T08:08:08;6.70;99.90
2869;DHT22;1442;47.448;8.582;2023-12-20T08:10:35;6.70;99.90
2869;DHT22;1442;47.448;8.582;2023-12-20T08:13:02;6.70;99.90
2869;DHT22;1442;47.448;8.582;2023-12-20T08:15:29;6.70;99.90
2869;DHT22;1442;47.448;8.582;2023-12-20T08:17:55;6.70;99.90
2869;DHT22;1442;47.448;8.582;2023-12-20T08:20:22;6.70;99.90
2869;DHT22;1442;47.448;8.582;2023-12-20T08:22:50;6.70;99.90
2869;DHT22;1442;47.448;8.582;2023-12-20T08:25:17;6.70;99.90
2869;DHT22;1442;47.448;8.582;2023-12-20T08:27:44;6.60;99.90
2869;DHT22;1442;47.448;8.582;2023-12-20T08:30:11;6.60;99.90
2869;DHT22;1442;47.448;8.582;2023-12-20T08:32:38;6.60;99.90
2869;DHT22;1442;47.448;8.582;2023-12-20T08:35:05;6.60;99.90
2869;DHT22;1442;47.448;8.582;2023-12-20T08:37:32;6.70;99.90
2869;DHT22;1442;47.448;8.582;2023-12-20T08:40:00;6.80;99.90
2869;DHT22;1442;47.448;8.582;2023-12-20T08:42:26;6.90;99.90
2869;DHT22;1442;47.448;8.582;2023-12-20T08:44:56;7.00;99.90
2869;DHT22;1442;47.448;8.582;2023-12-20T08:47:23;7.00;99.90
2869;DHT22;1442;47.448;8.582;2023-12-20T08:49:50;7.10;99.90
2869;DHT22;1442;47.448;8.582;2023-12-20T08:52:18;7.00;99.90
2869;DHT22;1442;47.448;8.582;2023-12-20T08:54:44;6.90;99.90
2869;DHT22;1442;47.448;8.582;2023-12-20T08:57:12;7.00;99.90
2869;DHT22;1442;47.448;8.582;2023-12-20T08:59:39;7.00;99.90
2869;DHT22;1442;47.448;8.582;2023-12-20T09:02:06;7.00;99.90
2869;DHT22;1442;47.448;8.582;2023-12-20T09:04:33;7.00;99.90
2869;DHT22;1442;47.448;8.582;2023-12-20T09:07:00;6.90;99.90
2869;DHT22;1442;47.448;8.582;2023-12-20T09:09:27;6.90;99.90
2869;DHT22;1442;47.448;8.582;2023-12-20T09:11:54;6.90;99.90
2869;DHT22;1442;47.448;8.582;2023-12-20T09:14:22;6.90;99.90
2869;DHT22;1442;47.448;8.582;2023-12-20T09:16:49;7.00;99.90
2869;DHT22;1442;47.448;8.582;2023-12-20T09:19:17;7.10;99.90
2869;DHT22;1442;47.448;8.582;2023-12-20T09:21:43;7.10;99.90
2869;DHT22;1442;47.448;8.582;2023-12-20T09:24:10;7.10;99.90
2869;DHT22;1442;47.448;8.582;2023-12-20T09:26:37;7.20;99.90
2869;DHT22;1442;47.448;8.582;2023-12-20T09:29:05;7.30;99.90
2869;DHT22;1442;47.448;8.582;2023-12-20T09:31:36;7.30;99.90
2869;DHT22;1442;47.448;8.582;2023-12-20T09:34:03;7.30;99.90
2869;DHT22;1442;47.448;8.582;2023-12-20T09:36:30;7.40;99.90
2869;DHT22;1442;47.448;8.582;2023-12-20T09:39:00;7.40;99.90
2869;DHT22;1442;47.448;8.582;2023-12-20T09:41:27;7.30;99.90
2869;DHT22;1442;47.448;8.582;2023-12-20T09:43:54;7.20;99.90
2869;DHT22;1442;47.448;8.582;2023-12-20T09:46:26;7.30;99.90
2869;DHT22;1442;47.448;8.582;2023-12-20T09:48:57;7.30;99.90
2869;DHT22;1442;47.448;8.582;2023-12-20T09:51:25;7.30;99.90
2869;DHT22;1442;47.448;8.582;2023-12-20T09:53:54;7.30;99.90
2869;DHT22;1442;47.448;8.582;2023-12-20T09:56:21;7.30;99.90
2869;DHT22;1442;47.448;8.582;2023-12-20T09:58:48;7.30;99.90
2869;DHT22;1442;47.448;8.582;2023-12-20T10:01:16;7.30;99.90
2869;DHT22;1442;47.448;8.582;2023-12-20T10:03:43;7.30;99.90
2869;DHT22;1442;47.448;8.582;2023-12-20T10:06:11;7.30;99.90
2869;DHT22;1442;47.448;8.582;2023-12-20T10:08:38;7.30;99.90
2869;DHT22;1442;47.448;8.582;2023-12-20T10:11:06;7.30;99.90
2869;DHT22;1442;47.448;8.582;2023-12-20T10:13:32;7.30;99.90
2869;DHT22;1442;47.448;8.582;2023-12-20T10:15:59;7.30;99.90
2869;DHT22;1442;47.448;8.582;2023-12-20T10:18:29;7.30;99.90
2869;DHT22;1442;47.448;8.582;2023-12-20T10:20:55;7.30;99.90
2869;DHT22;1442;47.448;8.582;2023-12-20T10:23:24;7.30;99.90
2869;DHT22;1442;47.448;8.582;2023-12-20T10:25:56;7.40;99.90
2869;DHT22;1442;47.448;8.582;2023-12-20T10:28:23;7.40;99.90
2869;DHT22;1442;47.448;8.582;2023-12-20T10:30:53;7.40;99.90
2869;DHT22;1442;47.448;8.582;2023-12-20T10:33:24;7.40;99.90
2869;DHT22;1442;47.448;8.582;2023-12-20T10:35:51;7.40;99.90
2869;DHT22;1442;47.448;8.582;2023-12-20T10:38:18;7.50;99.90
2869;DHT22;1442;47.448;8.582;2023-12-20T10:40:46;7.50;99.90
2869;DHT22;1442;47.448;8.582;2023-12-20T10:43:13;7.60;99.90
2869;DHT22;1442;47.448;8.582;2023-12-20T10:45:41;7.60;99.90
2869;DHT22;1442;47.448;8.582;2023-12-20T10:48:10;7.60;99.90
2869;DHT22;1442;47.448;8.582;2023-12-20T10:50:38;7.60;99.90
2869;DHT22;1442;47.448;8.582;2023-12-20T10:53:06;7.60;99.90
2869;DHT22;1442;47.448;8.582;2023-12-20T10:55:33;7.70;99.90
2869;DHT22;1442;47.448;8.582;2023-12-20T10:58:04;7.70;99.90
2869;DHT22;1442;47.448;8.582;2023-12-20T11:00:33;7.60;99.90
2869;DHT22;1442;47.448;8.582;2023-12-20T11:03:01;7.70;99.90
2869;DHT22;1442;47.448;8.582;2023-12-20T11:05:36;7.60;99.90
2869;DHT22;1442;47.448;8.582;2023-12-20T11:08:08;7.60;99.90
2869;DHT22;1442;47.448;8.582;2023-12-20T11:10:42;7.60;99.90
2869;DHT22;1442;47.448;8.582;2023-12-20T11:13:16;7.60;99.90
2869;DHT22;1442;47.448;8.582;2023-12-20T11:15:44;7.70;99.90
2869;DHT22;1442;47.448;8.582;2023-12-20T11:18:11;7.70;99.90
2869;DHT22;1442;47.448;8.582;2023-12-20T11:20:39;7.70;99.90
2869;DHT22;1442;47.448;8.582;2023-12-20T11:23:08;7.70;99.90
2869;DHT22;1442;47.448;8.582;2023-12-20T11:25:47;7.70;99.90
2869;DHT22;1442;47.448;8.582;2023-12-20T11:28:15;7.60;99.90
2869;DHT22;1442;47.448;8.582;2023-12-20T11:30:47;7.60;99.90
2869;DHT22;1442;47.448;8.582;2023-12-20T11:33:14;7.60;99.90
2869;DHT22;1442;47.448;8.582;2023-12-20T11:35:42;7.60;99.90
2869;DHT22;1442;47.448;8.582;2023-12-20T11:38:09;7.60;99.90
2869;DHT22;1442;47.448;8.582;2023-12-20T11:40:36;7.60;99.90
2869;DHT22;1442;47.448;8.582;2023-12-20T11:43:03;7.60;99.90
2869;DHT22;1442;47.448;8.582;2023-12-20T11:45:32;7.60;99.90
2869;DHT22;1442;47.448;8.582;2023-12-20T11:48:00;7.60;99.90
2869;DHT22;1442;47.448;8.582;2023-12-20T11:50:28;7.60;99.90
2869;DHT22;1442;47.448;8.582;2023-12-20T11:52:56;7.60;99.90
2869;DHT22;1442;47.448;8.582;2023-12-20T11:55:23;7.50;99.90
2869;DHT22;1442;47.448;8.582;2023-12-20T11:57:50;7.50;99.90
2869;DHT22;1442;47.448;8.582;2023-12-20T12:00:18;7.50;99.90
2869;DHT22;1442;47.448;8.582;2023-12-20T12:02:55;7.50;99.90
2869;DHT22;1442;47.448;8.582;2023-12-20T12:05:22;7.40;99.90
2869;DHT22;1442;47.448;8.582;2023-12-20T12:07:48;7.50;99.90
2869;DHT22;1442;47.448;8.582;2023-12-20T12:10:15;7.50;99.90
2869;DHT22;1442;47.448;8.582;2023-12-20T12:12:42;7.40;99.90
2869;DHT22;1442;47.448;8.582;2023-12-20T12:15:09;7.40;99.90
2869;DHT22;1442;47.448;8.582;2023-12-20T12:17:36;7.30;99.90
2869;DHT22;1442;47.448;8.582;2023-12-20T12:20:06;7.30;99.90
2869;DHT22;1442;47.448;8.582;2023-12-20T12:22:35;7.30;99.90
2869;DHT22;1442;47.448;8.582;2023-12-20T12:25:10;7.30;99.90
2869;DHT22;1442;47.448;8.582;2023-12-20T12:27:37;7.30;99.90
2869;DHT22;1442;47.448;8.582;2023-12-20T12:30:06;7.40;99.90
2869;DHT22;1442;47.448;8.582;2023-12-20T12:32:33;7.30;99.90
2869;DHT22;1442;47.448;8.582;2023-12-20T12:35:02;7.40;99.90
2869;DHT22;1442;47.448;8.582;2023-12-20T12:37:30;7.40;99.90
2869;DHT22;1442;47.448;8.582;2023-12-20T12:39:57;7.40;99.90
2869;DHT22;1442;47.448;8.582;2023-12-20T12:42:24;7.40;99.90
2869;DHT22;1442;47.448;8.582;2023-12-20T12:44:54;7.30;99.90
2869;DHT22;1442;47.448;8.582;2023-12-20T12:47:20;7.30;99.90
2869;DHT22;1442;47.448;8.582;2023-12-20T12:49:49;7.20;99.90
2869;DHT22;1442;47.448;8.582;2023-12-20T12:52:17;7.20;99.90
2869;DHT22;1442;47.448;8.582;2023-12-20T12:54:45;7.20;99.90
2869;DHT22;1442;47.448;8.582;2023-12-20T12:57:14;7.20;99.90
2869;DHT22;1442;47.448;8.582;2023-12-20T12:59:41;7.20;99.90
2869;DHT22;1442;47.448;8.582;2023-12-20T13:02:08;7.20;99.90
2869;DHT22;1442;47.448;8.582;2023-12-20T13:04:34;7.10;99.90
2869;DHT22;1442;47.448;8.582;2023-12-20T13:07:01;7.00;99.90
2869;DHT22;1442;47.448;8.582;2023-12-20T13:09:28;6.90;99.90
2869;DHT22;1442;47.448;8.582;2023-12-20T13:11:56;6.90;99.90
2869;DHT22;1442;47.448;8.582;2023-12-20T13:14:24;6.90;99.90
2869;DHT22;1442;47.448;8.582;2023-12-20T13:16:51;6.90;99.90
2869;DHT22;1442;47.448;8.582;2023-12-20T13:19:17;6.90;99.90
2869;DHT22;1442;47.448;8.582;2023-12-20T13:21:44;6.90;99.90
2869;DHT22;1442;47.448;8.582;2023-12-20T13:24:11;6.90;99.90
2869;DHT22;1442;47.448;8.582;2023-12-20T13:26:37;6.90;99.90
2869;DHT22;1442;47.448;8.582;2023-12-20T13:29:05;6.80;99.90
2869;DHT22;1442;47.448;8.582;2023-12-20T13:31:32;6.80;99.90
2869;DHT22;1442;47.448;8.582;2023-12-20T13:34:01;6.80;99.90
2869;DHT22;1442;47.448;8.582;2023-12-20T13:36:28;6.80;99.90
2869;DHT22;1442;47.448;8.582;2023-12-20T13:38:55;6.90;99.90
2869;DHT22;1442;47.448;8.582;2023-12-20T13:41:22;6.90;99.90
2869;DHT22;1442;47.448;8.582;2023-12-20T13:43:49;6.90;99.90
2869;DHT22;1442;47.448;8.582;2023-12-20T13:46:17;6.90;99.90
2869;DHT22;1442;47.448;8.582;2023-12-20T13:48:44;7.00;99.90
2869;DHT22;1442;47.448;8.582;2023-12-20T13:51:11;6.90;99.90
2869;DHT22;1442;47.448;8.582;2023-12-20T13:53:37;6.90;99.90
2869;DHT22;1442;47.448;8.582;2023-12-20T13:56:05;6.80;99.90
2869;DHT22;1442;47.448;8.582;2023-12-20T13:58:32;6.80;99.90
2869;DHT22;1442;47.448;8.582;2023-12-20T14:00:58;6.80;99.90
2869;DHT22;1442;47.448;8.582;2023-12-20T14:03:27;6.80;99.90
2869;DHT22;1442;47.448;8.582;2023-12-20T14:05:53;6.80;99.90
2869;DHT22;1442;47.448;8.582;2023-12-20T14:08:20;6.70;99.90
2869;DHT22;1442;47.448;8.582;2023-12-20T14:10:47;6.70;99.90
2869;DHT22;1442;47.448;8.582;2023-12-20T14:13:14;6.70;99.90
2869;DHT22;1442;47.448;8.582;2023-12-20T14:15:40;6.60;99.90
2869;DHT22;1442;47.448;8.582;2023-12-20T14:18:07;6.60;99.90
2869;DHT22;1442;47.448;8.582;2023-12-20T14:20:36;6.60;99.90
2869;DHT22;1442;47.448;8.582;2023-12-20T14:23:05;6.70;99.90
2869;DHT22;1442;47.448;8.582;2023-12-20T14:25:31;6.70;99.90
2869;DHT22;1442;47.448;8.582;2023-12-20T14:27:58;6.60;99.90
2869;DHT22;1442;47.448;8.582;2023-12-20T14:30:25;6.60;99.90
2869;DHT22;1442;47.448;8.582;2023-12-20T14:32:52;6.60;99.90
2869;DHT22;1442;47.448;8.582;2023-12-20T14:35:19;6.60;99.90
2869;DHT22;1442;47.448;8.582;2023-12-20T14:37:47;6.50;99.90
2869;DHT22;1442;47.448;8.582;2023-12-20T14:40:15;6.40;99.90
2869;DHT22;1442;47.448;8.582;2023-12-20T14:42:42;6.30;99.90
2869;DHT22;1442;47.448;8.582;2023-12-20T14:45:09;6.20;99.90
2869;DHT22;1442;47.448;8.582;2023-12-20T14:47:36;6.20;99.90
2869;DHT22;1442;47.448;8.582;2023-12-20T14:50:04;6.20;99.90
2869;DHT22;1442;47.448;8.582;2023-12-20T14:52:31;6.20;99.90
2869;DHT22;1442;47.448;8.582;2023-12-20T14:55:00;6.20;99.90
2869;DHT22;1442;47.448;8.582;2023-12-20T14:57:28;6.20;99.90
2869;DHT22;1442;47.448;8.582;2023-12-20T14:59:54;6.10;99.90
2869;DHT22;1442;47.448;8.582;2023-12-20T15:02:21;6.00;99.90
2869;DHT22;1442;47.448;8.582;2023-12-20T15:04:48;6.00;99.90
2869;DHT22;1442;47.448;8.582;2023-12-20T15:07:16;6.00;99.90
2869;DHT22;1442;47.448;8.582;2023-12-20T15:09:43;5.90;99.90
2869;DHT22;1442;47.448;8.582;2023-12-20T15:12:13;5.90;99.90
2869;DHT22;1442;47.448;8.582;2023-12-20T15:14:39;5.80;99.90
2869;DHT22;1442;47.448;8.582;2023-12-20T15:17:06;5.80;99.90
2869;DHT22;1442;47.448;8.582;2023-12-20T15:19:33;5.80;99.90
2869;DHT22;1442;47.448;8.582;2023-12-20T15:22:00;5.90;99.90
2869;DHT22;1442;47.448;8.582;2023-12-20T15:24:27;5.90;99.90
2869;DHT22;1442;47.448;8.582;2023-12-20T15:27:04;5.90;99.90
2869;DHT22;1442;47.448;8.582;2023-12-20T15:29:32;5.90;99.90
2869;DHT22;1442;47.448;8.582;2023-12-20T15:31:58;5.90;99.90
2869;DHT22;1442;47.448;8.582;2023-12-20T15:34:25;5.80;99.90
2869;DHT22;1442;47.448;8.582;2023-12-20T15:36:52;5.90;99.90
2869;DHT22;1442;47.448;8.582;2023-12-20T15:39:18;5.90;99.90
2869;DHT22;1442;47.448;8.582;2023-12-20T15:41:45;5.80;99.90
2869;DHT22;1442;47.448;8.582;2023-12-20T15:44:12;5.80;99.90
2869;DHT22;1442;47.448;8.582;2023-12-20T15:46:40;5.80;99.90
2869;DHT22;1442;47.448;8.582;2023-12-20T15:49:07;5.80;99.90
2869;DHT22;1442;47.448;8.582;2023-12-20T15:51:36;5.80;99.90
2869;DHT22;1442;47.448;8.582;2023-12-20T15:54:03;5.80;99.90
2869;DHT22;1442;47.448;8.582;2023-12-20T15:56:32;5.80;99.90
2869;DHT22;1442;47.448;8.582;2023-12-20T15:58:58;5.80;99.90
2869;DHT22;1442;47.448;8.582;2023-12-20T16:01:25;5.80;99.90
2869;DHT22;1442;47.448;8.582;2023-12-20T16:03:53;5.70;99.90
2869;DHT22;1442;47.448;8.582;2023-12-20T16:06:20;5.70;99.90
2869;DHT22;1442;47.448;8.582;2023-12-20T16:08:47;5.70;99.90
2869;DHT22;1442;47.448;8.582;2023-12-20T16:11:14;5.70;99.90
2869;DHT22;1442;47.448;8.582;2023-12-20T16:13:41;5.70;99.90
2869;DHT22;1442;47.448;8.582;2023-12-20T16:16:08;5.70;99.90
2869;DHT22;1442;47.448;8.582;2023-12-20T16:18:35;5.80;99.90